Skip to search.
Print Ranking Index
Switch to basketball»

2003USC Football Commitment List (28)

Signed Letter of Intent
Name Pos Location Ht Wt 40 Stars Rivals Rating Committed Videos Pos Rank Nat Rank State Rank Visit Date Enrolled Recruited By
Sam Baker 4 stars OL Tustin, CATustin 6'5" 305 5.20 4 stars 0.0 07/08/2003 4 91 13 01/17/2003 yes
Chris Barrett 4 stars TE Tustin, CATustin 6'5" 250 4.60 4 stars 0.0 07/08/2003 5 77 6 01/17/2003 yes
Reggie Bush 5 stars RB San Diego, CAHelix 6'0" 180 4.40 5 stars 0.0 07/08/2003 9 videos 1 2 4 12/20/2002 yes
John Drake 2 stars OL Long Beach, CALong Beach C.C. 6'4" 360 5.20 2 stars 0.0 07/08/2003 yes
Travis Draper 3 stars OL Paso Robles, CAPaso Robles 6'4" 270 4.79 3 stars 0.0 07/08/2003 25 44 yes
Sedrick Ellis 4 stars DT Chino, CAChino 6'3" 260 4.78 4 stars 0.0 07/08/2003 5 68 8 01/10/2003 yes
Lawrence Jackson 4 stars DE Inglewood, CAInglewood 6'5" 245 4.90 4 stars 0.0 07/08/2003 6 69 12 11/15/2002 yes
Ryan Kalil 3 stars OL Anaheim, CAServite 6'4" 255 4.90 3 stars 0.0 07/08/2003 4 videos 6 42 yes
Whitney Lewis 5 stars ATH Ventura, CASt. Bonaventure 6'1" 215 4.35 5 stars 0.0 07/08/2003 3 2 01/10/2003 yes
Fili Moala 3 stars DT Anaheim, CAWestern High 6'6" 295 5.00 3 stars 0.0 07/08/2003 25 54 yes
Alex Morrow 3 stars DT Rohnert Park, CARancho Cotate 6'6" 260 4.72 3 stars 0.0 07/08/2003 33 57 11/29/2002 yes
Will Poole 3 stars DB Ventura, CAVentura C.C. 6'0" 190 4.40 3 stars 0.0 07/08/2003 yes
Drew Radovich 4 stars OL Mission Viejo, CA 6'5" 275 5.10 4 stars 0.0 07/08/2003 2 58 7 yes
Desmond Reed 3 stars DB Temple City, CATemple City 5'10" 175 4.40 3 stars 0.0 07/08/2003 33 62 01/10/2003 yes
Drean Rucker 4 stars LB Moreno Valley, CACanyon Springs 6'1" 229 4.60 4 stars 0.0 07/08/2003 13 30 01/10/2003 yes
Steve Smith 4 stars ATH Woodland Hills, CATaft 5'11" 190 4.41 4 stars 0.0 07/08/2003 30 1 01/17/2003 yes
Matt Spanos 3 stars DT Corona, CA 6'5" 270 5.00 3 stars 0.0 07/08/2003 51 87 yes
Terrell Thomas 3 stars DB Rancho Cucamonga, CARancho Cucamonga 6'2" 185 4.40 3 stars 0.0 07/08/2003 23 37 01/10/2003 yes
Brandon Ting 3 stars DB Union City, CALogan 5'11" 175 4.40 3 stars 0.0 07/08/2003 65 81 yes
Ryan Ting 3 stars DB Union City, CALogan 5'11" 175 4.38 3 stars 0.0 07/08/2003 66 82 yes
Chauncey Washington 4 stars RB South Torrance, CASouth Torrance 6'1" 210 4.60 4 stars 0.0 07/08/2003 8 31 yes
Ryan Watson 3 stars DT River Ridge, LAJohn Curtis 6'4" 283 4.70 3 stars 0.0 07/08/2003 26 19 01/10/2003 yes
LenDale White 4 stars RB Littleton, COChatfield 6'2" 225 4.41 4 stars 0.0 07/08/2003 9 2 11/15/2002 yes
Thomas Williams 4 stars LB Vacaville, CAVacaville 6'3" 225 4.61 4 stars 0.0 07/08/2003 1 video 3 90 17 12/06/2003 yes
Eric Wright 3 stars ATH San Francisco, CARiordan 5'11" 185 4.40 3 stars 0.0 07/08/2003 50 12/06/2002 yes
Committed - Not Yet Signed
Name Pos Location Ht Wt 40 Stars Rivals Rating Committed Videos Pos Rank Nat Rank State Rank Visit Date Enrolled Recruited By
Jody Adewale 2 stars RB Los Angeles, CARoosevelt 6'0" 210 4.55 2 stars 0.0
John David Booty 0 stars QB Shreveport, LAEvangel Christian 6'3" 180 4.50 0 stars 0.0 07/08/2003 6 videos
Salo Faraimo 3 stars LB Vista, CAVista 6'0" 205 4.50 3 stars 0.0 07/08/2003 42 01/10/2003
View all results on map »